sensor_id;sensor_type;location;lat;lon;timestamp;P1;durP1;ratioP1;P2;durP2;ratioP2
60588;SDS011;46421;48.610;9.334;2023-06-05T00:01:53;5.00;;;2.20;;
60588;SDS011;46421;48.610;9.334;2023-06-05T00:04:18;4.67;;;1.60;;
60588;SDS011;46421;48.610;9.334;2023-06-05T00:06:45;4.95;;;1.98;;
60588;SDS011;46421;48.610;9.334;2023-06-05T00:09:11;4.82;;;1.90;;
60588;SDS011;46421;48.610;9.334;2023-06-05T00:11:38;3.95;;;1.83;;
60588;SDS011;46421;48.610;9.334;2023-06-05T00:14:03;5.38;;;1.83;;
60588;SDS011;46421;48.610;9.334;2023-06-05T00:16:30;5.93;;;2.10;;
60588;SDS011;46421;48.610;9.334;2023-06-05T00:18:55;5.40;;;2.20;;
60588;SDS011;46421;48.610;9.334;2023-06-05T00:21:21;4.75;;;1.70;;
60588;SDS011;46421;48.610;9.334;2023-06-05T00:23:47;4.72;;;2.08;;
60588;SDS011;46421;48.610;9.334;2023-06-05T00:26:12;5.50;;;2.20;;
60588;SDS011;46421;48.610;9.334;2023-06-05T00:28:37;4.77;;;1.90;;
60588;SDS011;46421;48.610;9.334;2023-06-05T00:31:03;6.50;;;2.25;;
60588;SDS011;46421;48.610;9.334;2023-06-05T00:33:29;4.10;;;2.10;;
60588;SDS011;46421;48.610;9.334;2023-06-05T00:35:55;5.22;;;2.20;;
60588;SDS011;46421;48.610;9.334;2023-06-05T00:38:20;5.30;;;2.10;;
60588;SDS011;46421;48.610;9.334;2023-06-05T00:40:46;4.10;;;2.00;;
60588;SDS011;46421;48.610;9.334;2023-06-05T00:43:14;5.40;;;1.90;;
60588;SDS011;46421;48.610;9.334;2023-06-05T00:45:39;5.53;;;2.38;;
60588;SDS011;46421;48.610;9.334;2023-06-05T00:48:05;4.50;;;2.20;;
60588;SDS011;46421;48.610;9.334;2023-06-05T00:50:31;4.85;;;2.03;;
60588;SDS011;46421;48.610;9.334;2023-06-05T00:52:57;6.05;;;1.90;;
60588;SDS011;46421;48.610;9.334;2023-06-05T00:55:22;5.60;;;1.90;;
60588;SDS011;46421;48.610;9.334;2023-06-05T00:57:48;5.38;;;2.40;;
60588;SDS011;46421;48.610;9.334;2023-06-05T01:00:13;6.13;;;2.17;;
60588;SDS011;46421;48.610;9.334;2023-06-05T01:02:39;5.10;;;1.90;;
60588;SDS011;46421;48.610;9.334;2023-06-05T01:05:05;6.97;;;2.47;;
60588;SDS011;46421;48.610;9.334;2023-06-05T01:07:31;5.88;;;2.42;;
60588;SDS011;46421;48.610;9.334;2023-06-05T01:09:58;3.88;;;1.75;;
60588;SDS011;46421;48.610;9.334;2023-06-05T01:12:29;5.40;;;2.33;;
60588;SDS011;46421;48.610;9.334;2023-06-05T01:14:56;6.50;;;2.10;;
60588;SDS011;46421;48.610;9.334;2023-06-05T01:17:24;5.00;;;2.10;;
60588;SDS011;46421;48.610;9.334;2023-06-05T01:19:50;4.07;;;1.77;;
60588;SDS011;46421;48.610;9.334;2023-06-05T01:22:16;4.35;;;2.13;;
60588;SDS011;46421;48.610;9.334;2023-06-05T01:24:41;5.57;;;2.47;;
60588;SDS011;46421;48.610;9.334;2023-06-05T01:27:12;5.23;;;2.00;;
60588;SDS011;46421;48.610;9.334;2023-06-05T01:29:51;5.32;;;1.98;;
60588;SDS011;46421;48.610;9.334;2023-06-05T01:32:22;4.47;;;1.70;;
60588;SDS011;46421;48.610;9.334;2023-06-05T01:34:50;5.07;;;1.90;;
60588;SDS011;46421;48.610;9.334;2023-06-05T01:37:18;4.53;;;2.13;;
60588;SDS011;46421;48.610;9.334;2023-06-05T01:39:45;4.78;;;1.90;;
60588;SDS011;46421;48.610;9.334;2023-06-05T01:42:10;4.38;;;1.70;;
60588;SDS011;46421;48.610;9.334;2023-06-05T01:44:37;5.68;;;2.38;;
60588;SDS011;46421;48.610;9.334;2023-06-05T01:47:03;4.63;;;2.03;;
60588;SDS011;46421;48.610;9.334;2023-06-05T01:49:28;6.88;;;2.75;;
60588;SDS011;46421;48.610;9.334;2023-06-05T01:51:53;5.80;;;2.13;;
60588;SDS011;46421;48.610;9.334;2023-06-05T01:54:20;5.80;;;2.13;;
60588;SDS011;46421;48.610;9.334;2023-06-05T01:56:48;5.15;;;1.88;;
60588;SDS011;46421;48.610;9.334;2023-06-05T01:59:14;5.28;;;2.08;;
60588;SDS011;46421;48.610;9.334;2023-06-05T02:01:41;4.63;;;1.83;;
60588;SDS011;46421;48.610;9.334;2023-06-05T02:04:09;5.72;;;2.30;;
60588;SDS011;46421;48.610;9.334;2023-06-05T02:06:34;5.00;;;2.35;;
60588;SDS011;46421;48.610;9.334;2023-06-05T02:09:09;6.03;;;2.50;;
60588;SDS011;46421;48.610;9.334;2023-06-05T02:11:38;4.85;;;2.15;;
60588;SDS011;46421;48.610;9.334;2023-06-05T02:14:04;5.25;;;2.40;;
60588;SDS011;46421;48.610;9.334;2023-06-05T02:16:30;5.75;;;1.80;;
60588;SDS011;46421;48.610;9.334;2023-06-05T02:18:55;6.77;;;2.37;;
60588;SDS011;46421;48.610;9.334;2023-06-05T02:21:22;6.22;;;2.00;;
60588;SDS011;46421;48.610;9.334;2023-06-05T02:23:47;4.55;;;2.22;;
60588;SDS011;46421;48.610;9.334;2023-06-05T02:26:14;5.97;;;2.00;;
60588;SDS011;46421;48.610;9.334;2023-06-05T02:28:43;4.82;;;2.20;;
60588;SDS011;46421;48.610;9.334;2023-06-05T02:31:08;6.03;;;2.10;;
60588;SDS011;46421;48.610;9.334;2023-06-05T02:33:33;6.18;;;2.70;;
60588;SDS011;46421;48.610;9.334;2023-06-05T02:35:58;6.67;;;2.33;;
60588;SDS011;46421;48.610;9.334;2023-06-05T02:38:24;4.53;;;2.13;;
60588;SDS011;46421;48.610;9.334;2023-06-05T02:40:49;6.13;;;2.45;;
60588;SDS011;46421;48.610;9.334;2023-06-05T02:43:15;6.10;;;2.90;;
60588;SDS011;46421;48.610;9.334;2023-06-05T02:45:41;6.35;;;2.28;;
60588;SDS011;46421;48.610;9.334;2023-06-05T02:48:06;6.97;;;2.43;;
60588;SDS011;46421;48.610;9.334;2023-06-05T02:50:32;6.00;;;2.60;;
60588;SDS011;46421;48.610;9.334;2023-06-05T02:52:57;5.57;;;2.33;;
60588;SDS011;46421;48.610;9.334;2023-06-05T02:55:22;5.93;;;2.57;;
60588;SDS011;46421;48.610;9.334;2023-06-05T02:57:47;5.97;;;2.20;;
60588;SDS011;46421;48.610;9.334;2023-06-05T03:00:14;5.63;;;2.35;;
60588;SDS011;46421;48.610;9.334;2023-06-05T03:02:42;5.75;;;2.03;;
60588;SDS011;46421;48.610;9.334;2023-06-05T03:05:07;3.33;;;1.63;;
60588;SDS011;46421;48.610;9.334;2023-06-05T03:07:34;4.85;;;2.40;;
60588;SDS011;46421;48.610;9.334;2023-06-05T03:09:59;5.77;;;2.00;;
60588;SDS011;46421;48.610;9.334;2023-06-05T03:12:25;5.18;;;2.03;;
60588;SDS011;46421;48.610;9.334;2023-06-05T03:14:50;5.43;;;2.45;;
60588;SDS011;46421;48.610;9.334;2023-06-05T03:17:15;5.07;;;2.43;;
60588;SDS011;46421;48.610;9.334;2023-06-05T03:19:40;9.70;;;2.40;;
60588;SDS011;46421;48.610;9.334;2023-06-05T03:22:06;5.93;;;2.22;;
60588;SDS011;46421;48.610;9.334;2023-06-05T03:24:32;5.33;;;2.50;;
60588;SDS011;46421;48.610;9.334;2023-06-05T03:26:57;7.40;;;2.40;;
60588;SDS011;46421;48.610;9.334;2023-06-05T03:29:22;5.30;;;2.63;;
60588;SDS011;46421;48.610;9.334;2023-06-05T03:31:47;6.73;;;2.67;;
60588;SDS011;46421;48.610;9.334;2023-06-05T03:34:13;5.10;;;2.20;;
60588;SDS011;46421;48.610;9.334;2023-06-05T03:36:38;5.40;;;2.53;;
60588;SDS011;46421;48.610;9.334;2023-06-05T03:39:04;6.15;;;2.42;;
60588;SDS011;46421;48.610;9.334;2023-06-05T03:41:30;6.00;;;2.40;;
60588;SDS011;46421;48.610;9.334;2023-06-05T03:43:55;5.63;;;2.20;;
60588;SDS011;46421;48.610;9.334;2023-06-05T03:46:22;5.97;;;2.40;;
60588;SDS011;46421;48.610;9.334;2023-06-05T03:48:49;6.63;;;2.47;;
60588;SDS011;46421;48.610;9.334;2023-06-05T03:51:15;6.97;;;2.53;;
60588;SDS011;46421;48.610;9.334;2023-06-05T03:53:43;5.40;;;2.10;;
60588;SDS011;46421;48.610;9.334;2023-06-05T03:56:09;6.00;;;2.40;;
60588;SDS011;46421;48.610;9.334;2023-06-05T03:58:35;5.38;;;2.38;;
60588;SDS011;46421;48.610;9.334;2023-06-05T04:01:00;5.80;;;2.60;;
60588;SDS011;46421;48.610;9.334;2023-06-05T04:03:25;5.83;;;2.30;;
60588;SDS011;46421;48.610;9.334;2023-06-05T04:05:52;4.78;;;2.22;;
60588;SDS011;46421;48.610;9.334;2023-06-05T04:08:17;6.72;;;2.40;;
60588;SDS011;46421;48.610;9.334;2023-06-05T04:10:43;7.20;;;2.13;;
60588;SDS011;46421;48.610;9.334;2023-06-05T04:13:08;6.22;;;2.67;;
60588;SDS011;46421;48.610;9.334;2023-06-05T04:15:33;7.57;;;2.53;;
60588;SDS011;46421;48.610;9.334;2023-06-05T04:17:59;7.13;;;2.63;;
60588;SDS011;46421;48.610;9.334;2023-06-05T04:20:24;7.60;;;2.30;;
60588;SDS011;46421;48.610;9.334;2023-06-05T04:22:49;5.60;;;2.50;;
60588;SDS011;46421;48.610;9.334;2023-06-05T04:25:14;6.47;;;2.47;;
60588;SDS011;46421;48.610;9.334;2023-06-05T04:27:40;6.33;;;2.43;;
60588;SDS011;46421;48.610;9.334;2023-06-05T04:30:06;5.75;;;2.40;;
60588;SDS011;46421;48.610;9.334;2023-06-05T04:32:31;6.25;;;2.58;;
60588;SDS011;46421;48.610;9.334;2023-06-05T04:34:59;8.65;;;2.95;;
60588;SDS011;46421;48.610;9.334;2023-06-05T04:37:24;5.75;;;2.15;;
60588;SDS011;46421;48.610;9.334;2023-06-05T04:39:49;8.13;;;2.77;;
60588;SDS011;46421;48.610;9.334;2023-06-05T04:42:16;6.20;;;2.65;;
60588;SDS011;46421;48.610;9.334;2023-06-05T04:44:42;5.18;;;2.50;;
60588;SDS011;46421;48.610;9.334;2023-06-05T04:47:07;5.63;;;2.60;;
60588;SDS011;46421;48.610;9.334;2023-06-05T04:49:33;6.23;;;2.50;;
60588;SDS011;46421;48.610;9.334;2023-06-05T04:51:58;5.97;;;2.47;;
60588;SDS011;46421;48.610;9.334;2023-06-05T04:54:24;5.22;;;2.50;;
60588;SDS011;46421;48.610;9.334;2023-06-05T04:56:49;7.55;;;2.97;;
60588;SDS011;46421;48.610;9.334;2023-06-05T04:59:14;7.33;;;2.80;;
60588;SDS011;46421;48.610;9.334;2023-06-05T05:01:40;7.50;;;2.70;;
60588;SDS011;46421;48.610;9.334;2023-06-05T05:04:06;9.10;;;2.67;;
60588;SDS011;46421;48.610;9.334;2023-06-05T05:06:31;6.43;;;2.57;;
60588;SDS011;46421;48.610;9.334;2023-06-05T05:08:56;5.63;;;2.50;;
60588;SDS011;46421;48.610;9.334;2023-06-05T05:11:21;7.37;;;3.03;;
60588;SDS011;46421;48.610;9.334;2023-06-05T05:13:46;6.67;;;3.13;;
60588;SDS011;46421;48.610;9.334;2023-06-05T05:16:12;7.67;;;3.00;;
60588;SDS011;46421;48.610;9.334;2023-06-05T05:18:42;8.37;;;2.80;;
60588;SDS011;46421;48.610;9.334;2023-06-05T05:21:08;6.63;;;2.63;;
60588;SDS011;46421;48.610;9.334;2023-06-05T05:23:33;9.00;;;3.57;;
60588;SDS011;46421;48.610;9.334;2023-06-05T05:25:59;5.80;;;2.90;;
60588;SDS011;46421;48.610;9.334;2023-06-05T05:28:24;9.10;;;3.00;;
60588;SDS011;46421;48.610;9.334;2023-06-05T05:30:51;7.32;;;3.45;;
60588;SDS011;46421;48.610;9.334;2023-06-05T05:35:41;7.68;;;3.22;;
60588;SDS011;46421;48.610;9.334;2023-06-05T05:38:07;5.97;;;2.60;;
60588;SDS011;46421;48.610;9.334;2023-06-05T05:40:32;6.35;;;2.78;;
60588;SDS011;46421;48.610;9.334;2023-06-05T05:42:57;6.63;;;2.70;;
60588;SDS011;46421;48.610;9.334;2023-06-05T05:45:23;9.17;;;3.30;;
60588;SDS011;46421;48.610;9.334;2023-06-05T05:47:48;8.00;;;3.17;;
60588;SDS011;46421;48.610;9.334;2023-06-05T05:50:13;6.57;;;3.17;;
60588;SDS011;46421;48.610;9.334;2023-06-05T05:52:39;7.40;;;2.92;;
60588;SDS011;46421;48.610;9.334;2023-06-05T05:55:04;5.20;;;2.63;;
60588;SDS011;46421;48.610;9.334;2023-06-05T05:57:30;9.00;;;2.92;;
60588;SDS011;46421;48.610;9.334;2023-06-05T05:59:55;6.70;;;2.90;;
60588;SDS011;46421;48.610;9.334;2023-06-05T06:02:20;6.15;;;2.85;;
60588;SDS011;46421;48.610;9.334;2023-06-05T06:04:46;6.77;;;2.90;;
60588;SDS011;46421;48.610;9.334;2023-06-05T06:07:12;7.32;;;2.90;;
60588;SDS011;46421;48.610;9.334;2023-06-05T06:09:37;6.22;;;2.85;;
60588;SDS011;46421;48.610;9.334;2023-06-05T06:12:04;7.15;;;3.00;;
60588;SDS011;46421;48.610;9.334;2023-06-05T06:14:34;6.45;;;2.88;;
60588;SDS011;46421;48.610;9.334;2023-06-05T06:17:00;7.53;;;2.83;;
60588;SDS011;46421;48.610;9.334;2023-06-05T06:19:25;7.40;;;3.15;;
60588;SDS011;46421;48.610;9.334;2023-06-05T06:21:52;5.90;;;2.20;;
60588;SDS011;46421;48.610;9.334;2023-06-05T06:24:18;8.60;;;3.42;;
60588;SDS011;46421;48.610;9.334;2023-06-05T06:26:45;5.68;;;2.92;;
60588;SDS011;46421;48.610;9.334;2023-06-05T06:29:13;5.60;;;2.80;;
60588;SDS011;46421;48.610;9.334;2023-06-05T06:31:39;6.47;;;2.67;;
60588;SDS011;46421;48.610;9.334;2023-06-05T06:34:04;8.75;;;2.83;;
60588;SDS011;46421;48.610;9.334;2023-06-05T06:36:30;6.15;;;2.72;;
60588;SDS011;46421;48.610;9.334;2023-06-05T06:38:55;7.10;;;2.87;;
60588;SDS011;46421;48.610;9.334;2023-06-05T06:41:20;8.77;;;3.00;;
60588;SDS011;46421;48.610;9.334;2023-06-05T06:43:46;11.65;;;3.10;;
60588;SDS011;46421;48.610;9.334;2023-06-05T06:46:11;6.63;;;2.87;;
60588;SDS011;46421;48.610;9.334;2023-06-05T06:48:37;8.18;;;2.65;;
60588;SDS011;46421;48.610;9.334;2023-06-05T06:51:02;6.00;;;2.57;;
60588;SDS011;46421;48.610;9.334;2023-06-05T06:53:28;6.05;;;2.70;;
60588;SDS011;46421;48.610;9.334;2023-06-05T06:55:53;6.60;;;2.83;;
60588;SDS011;46421;48.610;9.334;2023-06-05T06:58:19;5.60;;;2.80;;
60588;SDS011;46421;48.610;9.334;2023-06-05T07:00:44;7.27;;;2.70;;
60588;SDS011;46421;48.610;9.334;2023-06-05T07:03:09;7.63;;;3.27;;
60588;SDS011;46421;48.610;9.334;2023-06-05T07:05:35;8.10;;;3.03;;
60588;SDS011;46421;48.610;9.334;2023-06-05T07:08:00;7.00;;;3.22;;
60588;SDS011;46421;48.610;9.334;2023-06-05T07:10:26;6.07;;;3.22;;
60588;SDS011;46421;48.610;9.334;2023-06-05T07:12:52;6.35;;;2.65;;
60588;SDS011;46421;48.610;9.334;2023-06-05T07:15:17;6.83;;;2.90;;
60588;SDS011;46421;48.610;9.334;2023-06-05T07:17:42;6.97;;;2.93;;
60588;SDS011;46421;48.610;9.334;2023-06-05T07:20:07;8.20;;;3.40;;
60588;SDS011;46421;48.610;9.334;2023-06-05T07:22:34;7.20;;;3.60;;
60588;SDS011;46421;48.610;9.334;2023-06-05T07:24:59;6.22;;;3.10;;
60588;SDS011;46421;48.610;9.334;2023-06-05T07:27:25;5.88;;;3.03;;
60588;SDS011;46421;48.610;9.334;2023-06-05T07:29:50;7.13;;;3.10;;
60588;SDS011;46421;48.610;9.334;2023-06-05T07:32:18;6.05;;;3.60;;
60588;SDS011;46421;48.610;9.334;2023-06-05T07:34:43;7.05;;;3.42;;
60588;SDS011;46421;48.610;9.334;2023-06-05T07:37:08;6.30;;;3.10;;
60588;SDS011;46421;48.610;9.334;2023-06-05T07:39:34;5.67;;;3.03;;
60588;SDS011;46421;48.610;9.334;2023-06-05T07:41:59;6.28;;;3.00;;
60588;SDS011;46421;48.610;9.334;2023-06-05T07:44:24;6.40;;;3.33;;
60588;SDS011;46421;48.610;9.334;2023-06-05T07:46:50;5.85;;;2.72;;
60588;SDS011;46421;48.610;9.334;2023-06-05T07:49:16;5.20;;;2.88;;
60588;SDS011;46421;48.610;9.334;2023-06-05T07:51:42;5.28;;;2.72;;
60588;SDS011;46421;48.610;9.334;2023-06-05T07:54:08;5.60;;;2.80;;
60588;SDS011;46421;48.610;9.334;2023-06-05T07:58:59;6.03;;;2.90;;
60588;SDS011;46421;48.610;9.334;2023-06-05T08:01:24;6.60;;;3.33;;
60588;SDS011;46421;48.610;9.334;2023-06-05T08:03:50;6.43;;;3.30;;
60588;SDS011;46421;48.610;9.334;2023-06-05T08:06:16;6.35;;;3.38;;
60588;SDS011;46421;48.610;9.334;2023-06-05T08:08:42;5.65;;;3.30;;
60588;SDS011;46421;48.610;9.334;2023-06-05T08:13:33;6.95;;;2.97;;
60588;SDS011;46421;48.610;9.334;2023-06-05T08:15:58;4.97;;;2.80;;
60588;SDS011;46421;48.610;9.334;2023-06-05T08:18:23;9.43;;;3.13;;
60588;SDS011;46421;48.610;9.334;2023-06-05T08:23:13;6.93;;;3.08;;
60588;SDS011;46421;48.610;9.334;2023-06-05T08:35:20;5.43;;;3.33;;
60588;SDS011;46421;48.610;9.334;2023-06-05T08:37:45;5.53;;;3.07;;
60588;SDS011;46421;48.610;9.334;2023-06-05T08:42:37;5.82;;;3.05;;
60588;SDS011;46421;48.610;9.334;2023-06-05T08:45:08;6.50;;;3.63;;
60588;SDS011;46421;48.610;9.334;2023-06-05T08:47:35;5.63;;;3.20;;
60588;SDS011;46421;48.610;9.334;2023-06-05T08:50:01;5.68;;;3.30;;
60588;SDS011;46421;48.610;9.334;2023-06-05T08:52:28;7.32;;;3.60;;
60588;SDS011;46421;48.610;9.334;2023-06-05T08:54:55;7.35;;;3.72;;
60588;SDS011;46421;48.610;9.334;2023-06-05T08:57:22;8.00;;;3.60;;
60588;SDS011;46421;48.610;9.334;2023-06-05T08:59:49;5.68;;;3.70;;
60588;SDS011;46421;48.610;9.334;2023-06-05T09:02:14;6.90;;;4.00;;
60588;SDS011;46421;48.610;9.334;2023-06-05T09:04:40;5.37;;;3.33;;
60588;SDS011;46421;48.610;9.334;2023-06-05T09:07:05;6.03;;;3.40;;
60588;SDS011;46421;48.610;9.334;2023-06-05T09:09:32;4.93;;;3.20;;
60588;SDS011;46421;48.610;9.334;2023-06-05T09:12:02;6.40;;;4.18;;
60588;SDS011;46421;48.610;9.334;2023-06-05T09:14:27;6.13;;;3.28;;
60588;SDS011;46421;48.610;9.334;2023-06-05T09:16:52;7.37;;;3.60;;
60588;SDS011;46421;48.610;9.334;2023-06-05T09:19:18;6.32;;;3.67;;
60588;SDS011;46421;48.610;9.334;2023-06-05T09:21:53;6.63;;;3.00;;
60588;SDS011;46421;48.610;9.334;2023-06-05T09:24:20;6.47;;;3.40;;
60588;SDS011;46421;48.610;9.334;2023-06-05T09:29:28;5.53;;;3.47;;
60588;SDS011;46421;48.610;9.334;2023-06-05T09:31:55;5.53;;;3.33;;
60588;SDS011;46421;48.610;9.334;2023-06-05T09:34:21;6.38;;;3.47;;
60588;SDS011;46421;48.610;9.334;2023-06-05T09:36:47;6.15;;;3.92;;
60588;SDS011;46421;48.610;9.334;2023-06-05T09:41:41;6.85;;;3.45;;
60588;SDS011;46421;48.610;9.334;2023-06-05T09:44:06;6.00;;;4.20;;
60588;SDS011;46421;48.610;9.334;2023-06-05T09:48:57;8.40;;;3.70;;
60588;SDS011;46421;48.610;9.334;2023-06-05T09:51:24;5.88;;;3.20;;
60588;SDS011;46421;48.610;9.334;2023-06-05T09:56:15;5.43;;;2.88;;
60588;SDS011;46421;48.610;9.334;2023-06-05T09:58:43;5.82;;;3.67;;
60588;SDS011;46421;48.610;9.334;2023-06-05T10:01:08;5.13;;;3.10;;
60588;SDS011;46421;48.610;9.334;2023-06-05T10:03:36;6.32;;;3.53;;
60588;SDS011;46421;48.610;9.334;2023-06-05T10:08:27;6.53;;;3.35;;
60588;SDS011;46421;48.610;9.334;2023-06-05T10:13:18;5.45;;;3.72;;
60588;SDS011;46421;48.610;9.334;2023-06-05T10:15:44;5.72;;;3.40;;
60588;SDS011;46421;48.610;9.334;2023-06-05T10:18:10;5.88;;;3.45;;
60588;SDS011;46421;48.610;9.334;2023-06-05T10:23:02;7.32;;;3.70;;
60588;SDS011;46421;48.610;9.334;2023-06-05T10:25:29;5.28;;;3.13;;
60588;SDS011;46421;48.610;9.334;2023-06-05T10:35:46;5.10;;;2.90;;
60588;SDS011;46421;48.610;9.334;2023-06-05T10:38:17;6.35;;;3.72;;
60588;SDS011;46421;48.610;9.334;2023-06-05T10:40:47;6.10;;;2.97;;
60588;SDS011;46421;48.610;9.334;2023-06-05T10:45:54;5.70;;;3.55;;
60588;SDS011;46421;48.610;9.334;2023-06-05T10:55:54;4.78;;;3.30;;
60588;SDS011;46421;48.610;9.334;2023-06-05T10:58:22;5.38;;;3.60;;
60588;SDS011;46421;48.610;9.334;2023-06-05T11:04:07;5.22;;;3.60;;
60588;SDS011;46421;48.610;9.334;2023-06-05T11:06:25;6.18;;;3.72;;
60588;SDS011;46421;48.610;9.334;2023-06-05T11:14:19;5.10;;;3.40;;
60588;SDS011;46421;48.610;9.334;2023-06-05T11:19:56;5.60;;;3.15;;
60588;SDS011;46421;48.610;9.334;2023-06-05T11:24:27;5.97;;;3.10;;
60588;SDS011;46421;48.610;9.334;2023-06-05T11:26:53;5.53;;;3.10;;
60588;SDS011;46421;48.610;9.334;2023-06-05T11:29:18;4.70;;;2.97;;
60588;SDS011;46421;48.610;9.334;2023-06-05T11:31:43;5.13;;;3.33;;
60588;SDS011;46421;48.610;9.334;2023-06-05T11:36:34;7.65;;;3.72;;
60588;SDS011;46421;48.610;9.334;2023-06-05T11:39:00;5.70;;;3.97;;
60588;SDS011;46421;48.610;9.334;2023-06-05T11:41:26;6.13;;;3.30;;
60588;SDS011;46421;48.610;9.334;2023-06-05T11:43:52;6.60;;;4.18;;
60588;SDS011;46421;48.610;9.334;2023-06-05T11:46:17;5.13;;;3.30;;
60588;SDS011;46421;48.610;9.334;2023-06-05T11:51:07;5.47;;;3.10;;
60588;SDS011;46421;48.610;9.334;2023-06-05T11:55:58;5.72;;;3.15;;
60588;SDS011;46421;48.610;9.334;2023-06-05T11:58:30;5.43;;;3.10;;
60588;SDS011;46421;48.610;9.334;2023-06-05T12:01:06;5.72;;;2.95;;
60588;SDS011;46421;48.610;9.334;2023-06-05T12:03:32;8.00;;;3.10;;
60588;SDS011;46421;48.610;9.334;2023-06-05T12:05:58;5.93;;;2.97;;
60588;SDS011;46421;48.610;9.334;2023-06-05T12:08:27;7.07;;;3.30;;
60588;SDS011;46421;48.610;9.334;2023-06-05T12:10:54;9.35;;;3.15;;
60588;SDS011;46421;48.610;9.334;2023-06-05T12:13:21;6.80;;;3.00;;
60588;SDS011;46421;48.610;9.334;2023-06-05T12:15:56;5.72;;;2.97;;
60588;SDS011;46421;48.610;9.334;2023-06-05T12:18:30;5.75;;;3.28;;
60588;SDS011;46421;48.610;9.334;2023-06-05T12:20:58;6.85;;;3.55;;
60588;SDS011;46421;48.610;9.334;2023-06-05T12:23:23;5.68;;;3.22;;
60588;SDS011;46421;48.610;9.334;2023-06-05T12:26:02;6.80;;;3.35;;
60588;SDS011;46421;48.610;9.334;2023-06-05T12:30:53;5.40;;;3.03;;
60588;SDS011;46421;48.610;9.334;2023-06-05T12:35:44;5.63;;;3.00;;
60588;SDS011;46421;48.610;9.334;2023-06-05T12:40:36;5.90;;;3.30;;
60588;SDS011;46421;48.610;9.334;2023-06-05T12:45:26;5.55;;;3.30;;
60588;SDS011;46421;48.610;9.334;2023-06-05T12:47:51;5.20;;;3.37;;
60588;SDS011;46421;48.610;9.334;2023-06-05T12:52:42;5.22;;;3.40;;
60588;SDS011;46421;48.610;9.334;2023-06-05T12:57:33;5.60;;;3.10;;
60588;SDS011;46421;48.610;9.334;2023-06-05T13:00:00;4.93;;;2.90;;
60588;SDS011;46421;48.610;9.334;2023-06-05T13:02:30;5.75;;;3.13;;
60588;SDS011;46421;48.610;9.334;2023-06-05T13:04:57;5.90;;;3.38;;
60588;SDS011;46421;48.610;9.334;2023-06-05T13:09:47;6.83;;;4.10;;
60588;SDS011;46421;48.610;9.334;2023-06-05T13:14:37;7.38;;;3.67;;
60588;SDS011;46421;48.610;9.334;2023-06-05T13:19:28;6.63;;;3.40;;
60588;SDS011;46421;48.610;9.334;2023-06-05T13:24:18;5.20;;;3.40;;
60588;SDS011;46421;48.610;9.334;2023-06-05T13:29:09;6.10;;;3.15;;
60588;SDS011;46421;48.610;9.334;2023-06-05T13:31:34;5.22;;;3.40;;
60588;SDS011;46421;48.610;9.334;2023-06-05T13:36:25;4.82;;;3.35;;
60588;SDS011;46421;48.610;9.334;2023-06-05T13:38:51;5.72;;;3.40;;
60588;SDS011;46421;48.610;9.334;2023-06-05T13:41:16;5.07;;;3.00;;
60588;SDS011;46421;48.610;9.334;2023-06-05T13:43:42;4.68;;;3.05;;
60588;SDS011;46421;48.610;9.334;2023-06-05T13:46:07;6.07;;;3.43;;
60588;SDS011;46421;48.610;9.334;2023-06-05T13:50:59;5.63;;;3.25;;
60588;SDS011;46421;48.610;9.334;2023-06-05T13:53:24;8.75;;;3.55;;
60588;SDS011;46421;48.610;9.334;2023-06-05T13:58:15;7.07;;;3.10;;
60588;SDS011;46421;48.610;9.334;2023-06-05T14:00:41;5.50;;;2.72;;
60588;SDS011;46421;48.610;9.334;2023-06-05T14:03:07;6.15;;;3.10;;
60588;SDS011;46421;48.610;9.334;2023-06-05T14:05:32;6.75;;;3.72;;
60588;SDS011;46421;48.610;9.334;2023-06-05T14:07:57;5.78;;;3.30;;
60588;SDS011;46421;48.610;9.334;2023-06-05T14:10:23;6.87;;;3.13;;
60588;SDS011;46421;48.610;9.334;2023-06-05T14:12:49;7.63;;;2.90;;
60588;SDS011;46421;48.610;9.334;2023-06-05T14:15:15;6.38;;;3.10;;
60588;SDS011;46421;48.610;9.334;2023-06-05T14:17:42;5.82;;;2.65;;
60588;SDS011;46421;48.610;9.334;2023-06-05T14:20:08;5.00;;;2.88;;
60588;SDS011;46421;48.610;9.334;2023-06-05T14:22:33;7.47;;;3.15;;
60588;SDS011;46421;48.610;9.334;2023-06-05T14:24:58;4.67;;;3.00;;
60588;SDS011;46421;48.610;9.334;2023-06-05T14:29:50;4.85;;;2.90;;
60588;SDS011;46421;48.610;9.334;2023-06-05T14:32:15;4.90;;;3.22;;
60588;SDS011;46421;48.610;9.334;2023-06-05T14:34:40;5.65;;;3.53;;
60588;SDS011;46421;48.610;9.334;2023-06-05T14:39:30;5.60;;;2.83;;
60588;SDS011;46421;48.610;9.334;2023-06-05T14:44:21;5.80;;;3.08;;
60588;SDS011;46421;48.610;9.334;2023-06-05T14:49:11;6.20;;;3.37;;
60588;SDS011;46421;48.610;9.334;2023-06-05T14:51:37;6.03;;;3.47;;
60588;SDS011;46421;48.610;9.334;2023-06-05T14:54:03;7.03;;;3.13;;
60588;SDS011;46421;48.610;9.334;2023-06-05T14:56:28;5.07;;;3.10;;
60588;SDS011;46421;48.610;9.334;2023-06-05T14:58:53;4.40;;;2.78;;
60588;SDS011;46421;48.610;9.334;2023-06-05T15:03:45;6.55;;;3.08;;
60588;SDS011;46421;48.610;9.334;2023-06-05T15:06:10;5.65;;;3.03;;
60588;SDS011;46421;48.610;9.334;2023-06-05T15:08:35;6.45;;;3.28;;
60588;SDS011;46421;48.610;9.334;2023-06-05T15:11:01;4.63;;;2.80;;
60588;SDS011;46421;48.610;9.334;2023-06-05T15:13:26;6.83;;;3.00;;
60588;SDS011;46421;48.610;9.334;2023-06-05T15:15:51;5.17;;;2.80;;
60588;SDS011;46421;48.610;9.334;2023-06-05T15:18:17;5.25;;;2.90;;
60588;SDS011;46421;48.610;9.334;2023-06-05T15:20:42;5.13;;;2.73;;
60588;SDS011;46421;48.610;9.334;2023-06-05T15:23:07;6.83;;;3.30;;
60588;SDS011;46421;48.610;9.334;2023-06-05T15:25:32;5.67;;;3.20;;
60588;SDS011;46421;48.610;9.334;2023-06-05T15:28:00;5.70;;;2.70;;
60588;SDS011;46421;48.610;9.334;2023-06-05T15:30:25;5.80;;;2.50;;
60588;SDS011;46421;48.610;9.334;2023-06-05T15:32:50;4.97;;;2.65;;
60588;SDS011;46421;48.610;9.334;2023-06-05T15:35:16;6.60;;;2.45;;
60588;SDS011;46421;48.610;9.334;2023-06-05T15:37:41;5.13;;;2.67;;
60588;SDS011;46421;48.610;9.334;2023-06-05T15:40:07;5.40;;;2.57;;
60588;SDS011;46421;48.610;9.334;2023-06-05T15:42:33;5.80;;;2.42;;
60588;SDS011;46421;48.610;9.334;2023-06-05T15:47:52;5.60;;;2.30;;
60588;SDS011;46421;48.610;9.334;2023-06-05T15:50:18;5.57;;;2.50;;
60588;SDS011;46421;48.610;9.334;2023-06-05T15:52:43;7.50;;;2.90;;
60588;SDS011;46421;48.610;9.334;2023-06-05T15:55:08;5.70;;;2.50;;
60588;SDS011;46421;48.610;9.334;2023-06-05T15:57:34;5.32;;;2.60;;
60588;SDS011;46421;48.610;9.334;2023-06-05T15:59:59;6.70;;;2.38;;
60588;SDS011;46421;48.610;9.334;2023-06-05T16:02:25;5.60;;;2.30;;
60588;SDS011;46421;48.610;9.334;2023-06-05T16:04:51;5.05;;;2.08;;
60588;SDS011;46421;48.610;9.334;2023-06-05T16:07:16;5.90;;;2.42;;
60588;SDS011;46421;48.610;9.334;2023-06-05T16:09:42;5.00;;;2.50;;
60588;SDS011;46421;48.610;9.334;2023-06-05T16:12:08;5.13;;;2.70;;
60588;SDS011;46421;48.610;9.334;2023-06-05T16:14:33;7.27;;;2.40;;
60588;SDS011;46421;48.610;9.334;2023-06-05T16:16:58;5.22;;;2.40;;
60588;SDS011;46421;48.610;9.334;2023-06-05T16:19:23;5.07;;;2.30;;
60588;SDS011;46421;48.610;9.334;2023-06-05T16:21:49;4.85;;;2.60;;
60588;SDS011;46421;48.610;9.334;2023-06-05T16:24:15;6.25;;;3.47;;
60588;SDS011;46421;48.610;9.334;2023-06-05T16:26:40;5.73;;;2.80;;
60588;SDS011;46421;48.610;9.334;2023-06-05T16:29:06;5.40;;;2.67;;
60588;SDS011;46421;48.610;9.334;2023-06-05T16:31:31;7.15;;;2.40;;
60588;SDS011;46421;48.610;9.334;2023-06-05T16:33:57;6.80;;;2.60;;
60588;SDS011;46421;48.610;9.334;2023-06-05T16:36:22;5.25;;;2.13;;
60588;SDS011;46421;48.610;9.334;2023-06-05T16:38:48;5.15;;;2.58;;
60588;SDS011;46421;48.610;9.334;2023-06-05T16:41:13;5.03;;;2.28;;
60588;SDS011;46421;48.610;9.334;2023-06-05T16:43:39;4.75;;;2.20;;
60588;SDS011;46421;48.610;9.334;2023-06-05T16:46:04;5.23;;;2.30;;
60588;SDS011;46421;48.610;9.334;2023-06-05T16:48:30;6.78;;;2.45;;